Holly Pond, Alabama
Current Conditions -  °F | °C
As of 6:35 AM on Monday 22 Dec 2014 (Local Time) from KCMD Reporting Station
Haze Haze  
Wind Chill:   Ceiling: 400
Heat Index:   Visibility: 1.7mi
Dew Point:   Wind: 6mph
Humidity: 97%   Direction: 130°SE
Pressure: 29.96"   Gusts: NA
Location:  34.17°N, 86.62°W
Report Text: KCMD 221235Z AUTO 13005KT 1 3/4SM BR OVC004 08/08 A2996 RMK AO2 T00800076
Loading
Personal Weather Stations






























Interactive Weather Map New forecast layout! Learn more

10-Day Weather Forecast

Advertisements
Track Severe Weather on mobile